sensor_id;sensor_type;location;lat;lon;timestamp;P1;durP1;ratioP1;P2;durP2;ratioP2
20181;SDS011;10250;50.756;6.172;2024-03-23T00:54:48;16.27;;;3.67;;
20181;SDS011;10250;50.756;6.172;2024-03-23T00:56:49;14.93;;;3.03;;
20181;SDS011;10250;50.756;6.172;2024-03-23T00:58:50;15.13;;;3.30;;
20181;SDS011;10250;50.756;6.172;2024-03-23T01:00:51;11.40;;;2.70;;
20181;SDS011;10250;50.756;6.172;2024-03-23T01:02:51;14.03;;;2.47;;
20181;SDS011;10250;50.756;6.172;2024-03-23T01:04:52;14.63;;;2.80;;
20181;SDS011;10250;50.756;6.172;2024-03-23T01:06:53;18.27;;;3.70;;
20181;SDS011;10250;50.756;6.172;2024-03-23T01:08:55;14.60;;;3.60;;
20181;SDS011;10250;50.756;6.172;2024-03-23T01:10:56;13.23;;;3.03;;
20181;SDS011;10250;50.756;6.172;2024-03-23T01:12:57;16.03;;;3.20;;
20181;SDS011;10250;50.756;6.172;2024-03-23T01:14:58;14.63;;;3.00;;
20181;SDS011;10250;50.756;6.172;2024-03-23T01:16:59;14.00;;;2.90;;
20181;SDS011;10250;50.756;6.172;2024-03-23T01:19:00;13.90;;;3.10;;
20181;SDS011;10250;50.756;6.172;2024-03-23T01:21:01;14.27;;;3.30;;
20181;SDS011;10250;50.756;6.172;2024-03-23T01:23:02;14.53;;;2.90;;
20181;SDS011;10250;50.756;6.172;2024-03-23T01:25:03;11.80;;;2.70;;
20181;SDS011;10250;50.756;6.172;2024-03-23T01:27:04;11.57;;;2.80;;
20181;SDS011;10250;50.756;6.172;2024-03-23T01:29:05;13.57;;;3.00;;
20181;SDS011;10250;50.756;6.172;2024-03-23T01:31:06;13.60;;;2.90;;
20181;SDS011;10250;50.756;6.172;2024-03-23T01:33:07;10.27;;;2.53;;
20181;SDS011;10250;50.756;6.172;2024-03-23T01:35:08;14.87;;;3.20;;
20181;SDS011;10250;50.756;6.172;2024-03-23T01:37:09;14.13;;;2.80;;
20181;SDS011;10250;50.756;6.172;2024-03-23T01:39:10;13.57;;;2.60;;
20181;SDS011;10250;50.756;6.172;2024-03-23T01:41:11;11.80;;;2.03;;
20181;SDS011;10250;50.756;6.172;2024-03-23T01:43:12;17.00;;;2.30;;
20181;SDS011;10250;50.756;6.172;2024-03-23T01:45:13;13.10;;;2.27;;
20181;SDS011;10250;50.756;6.172;2024-03-23T01:47:15;13.67;;;1.97;;
20181;SDS011;10250;50.756;6.172;2024-03-23T01:49:16;15.00;;;2.03;;
20181;SDS011;10250;50.756;6.172;2024-03-23T01:51:17;10.87;;;1.97;;
20181;SDS011;10250;50.756;6.172;2024-03-23T01:53:18;10.57;;;1.90;;
20181;SDS011;10250;50.756;6.172;2024-03-23T01:55:21;16.53;;;2.73;;
20181;SDS011;10250;50.756;6.172;2024-03-23T01:57:23;13.90;;;2.27;;
20181;SDS011;10250;50.756;6.172;2024-03-23T01:59:24;10.33;;;1.87;;
20181;SDS011;10250;50.756;6.172;2024-03-23T02:01:25;11.77;;;2.07;;
20181;SDS011;10250;50.756;6.172;2024-03-23T02:03:26;10.70;;;1.90;;
20181;SDS011;10250;50.756;6.172;2024-03-23T02:05:27;9.10;;;1.83;;
20181;SDS011;10250;50.756;6.172;2024-03-23T02:07:28;12.13;;;2.10;;
20181;SDS011;10250;50.756;6.172;2024-03-23T02:09:30;12.80;;;2.00;;
20181;SDS011;10250;50.756;6.172;2024-03-23T02:11:31;15.80;;;2.40;;
20181;SDS011;10250;50.756;6.172;2024-03-23T02:13:32;13.60;;;2.20;;
20181;SDS011;10250;50.756;6.172;2024-03-23T02:15:33;14.47;;;2.50;;
20181;SDS011;10250;50.756;6.172;2024-03-23T02:17:35;16.87;;;2.37;;
20181;SDS011;10250;50.756;6.172;2024-03-23T02:19:36;12.37;;;1.87;;
20181;SDS011;10250;50.756;6.172;2024-03-23T02:21:37;9.80;;;1.83;;
20181;SDS011;10250;50.756;6.172;2024-03-23T02:23:38;13.57;;;2.00;;
20181;SDS011;10250;50.756;6.172;2024-03-23T02:25:39;15.10;;;2.13;;
20181;SDS011;10250;50.756;6.172;2024-03-23T02:27:40;11.40;;;2.00;;
20181;SDS011;10250;50.756;6.172;2024-03-23T02:29:41;18.00;;;1.90;;
20181;SDS011;10250;50.756;6.172;2024-03-23T02:31:42;8.87;;;1.87;;
20181;SDS011;10250;50.756;6.172;2024-03-23T02:33:43;12.50;;;2.30;;
20181;SDS011;10250;50.756;6.172;2024-03-23T02:35:44;12.60;;;2.20;;
20181;SDS011;10250;50.756;6.172;2024-03-23T02:37:48;14.13;;;2.03;;
20181;SDS011;10250;50.756;6.172;2024-03-23T02:39:49;8.83;;;1.63;;
20181;SDS011;10250;50.756;6.172;2024-03-23T02:41:50;12.43;;;1.63;;
20181;SDS011;10250;50.756;6.172;2024-03-23T02:43:51;15.33;;;2.13;;
20181;SDS011;10250;50.756;6.172;2024-03-23T02:45:52;9.47;;;1.83;;
20181;SDS011;10250;50.756;6.172;2024-03-23T02:47:53;9.73;;;1.90;;
20181;SDS011;10250;50.756;6.172;2024-03-23T02:49:54;13.47;;;2.17;;
20181;SDS011;10250;50.756;6.172;2024-03-23T02:51:55;12.10;;;2.00;;
20181;SDS011;10250;50.756;6.172;2024-03-23T02:53:56;11.57;;;1.73;;
20181;SDS011;10250;50.756;6.172;2024-03-23T02:55:57;10.20;;;1.73;;
20181;SDS011;10250;50.756;6.172;2024-03-23T02:57:58;8.83;;;2.20;;
20181;SDS011;10250;50.756;6.172;2024-03-23T03:00:01;8.17;;;1.60;;
20181;SDS011;10250;50.756;6.172;2024-03-23T03:02:03;11.00;;;1.90;;
20181;SDS011;10250;50.756;6.172;2024-03-23T03:04:04;14.53;;;2.13;;
20181;SDS011;10250;50.756;6.172;2024-03-23T03:06:05;10.40;;;2.33;;
20181;SDS011;10250;50.756;6.172;2024-03-23T03:08:06;11.63;;;1.93;;
20181;SDS011;10250;50.756;6.172;2024-03-23T03:10:07;13.57;;;2.60;;
20181;SDS011;10250;50.756;6.172;2024-03-23T03:12:11;11.10;;;1.93;;
20181;SDS011;10250;50.756;6.172;2024-03-23T03:14:12;11.37;;;2.00;;
20181;SDS011;10250;50.756;6.172;2024-03-23T03:16:13;15.70;;;1.80;;
20181;SDS011;10250;50.756;6.172;2024-03-23T03:18:14;14.37;;;1.80;;
20181;SDS011;10250;50.756;6.172;2024-03-23T03:20:15;7.73;;;1.57;;
20181;SDS011;10250;50.756;6.172;2024-03-23T03:22:17;11.37;;;2.00;;
20181;SDS011;10250;50.756;6.172;2024-03-23T03:24:18;11.03;;;1.70;;
20181;SDS011;10250;50.756;6.172;2024-03-23T03:26:19;12.80;;;1.80;;
20181;SDS011;10250;50.756;6.172;2024-03-23T03:28:20;13.00;;;2.20;;
20181;SDS011;10250;50.756;6.172;2024-03-23T03:30:21;11.20;;;1.83;;
20181;SDS011;10250;50.756;6.172;2024-03-23T03:32:22;9.43;;;1.50;;
20181;SDS011;10250;50.756;6.172;2024-03-23T03:34:23;10.27;;;1.90;;
20181;SDS011;10250;50.756;6.172;2024-03-23T03:36:24;12.37;;;2.00;;
20181;SDS011;10250;50.756;6.172;2024-03-23T03:38:25;9.33;;;1.60;;
20181;SDS011;10250;50.756;6.172;2024-03-23T03:40:26;9.10;;;1.80;;
20181;SDS011;10250;50.756;6.172;2024-03-23T03:42:27;14.53;;;2.30;;
20181;SDS011;10250;50.756;6.172;2024-03-23T03:44:28;13.60;;;1.73;;
20181;SDS011;10250;50.756;6.172;2024-03-23T03:46:29;14.90;;;2.30;;
20181;SDS011;10250;50.756;6.172;2024-03-23T03:48:30;8.20;;;1.87;;
20181;SDS011;10250;50.756;6.172;2024-03-23T03:50:31;7.60;;;1.80;;
20181;SDS011;10250;50.756;6.172;2024-03-23T03:52:32;14.97;;;2.20;;
20181;SDS011;10250;50.756;6.172;2024-03-23T03:54:33;15.47;;;2.17;;
20181;SDS011;10250;50.756;6.172;2024-03-23T03:56:34;13.13;;;1.90;;
20181;SDS011;10250;50.756;6.172;2024-03-23T03:58:35;12.57;;;2.03;;
20181;SDS011;10250;50.756;6.172;2024-03-23T04:00:36;9.53;;;1.90;;
20181;SDS011;10250;50.756;6.172;2024-03-23T04:02:37;10.80;;;2.13;;
20181;SDS011;10250;50.756;6.172;2024-03-23T04:04:38;10.40;;;2.00;;
20181;SDS011;10250;50.756;6.172;2024-03-23T04:06:39;11.60;;;1.80;;
20181;SDS011;10250;50.756;6.172;2024-03-23T04:08:40;12.93;;;1.90;;
20181;SDS011;10250;50.756;6.172;2024-03-23T04:10:41;12.60;;;1.93;;
20181;SDS011;10250;50.756;6.172;2024-03-23T04:12:42;13.70;;;1.93;;
20181;SDS011;10250;50.756;6.172;2024-03-23T04:14:43;12.37;;;2.13;;
20181;SDS011;10250;50.756;6.172;2024-03-23T04:16:44;11.03;;;1.70;;
20181;SDS011;10250;50.756;6.172;2024-03-23T04:18:45;12.17;;;2.00;;
20181;SDS011;10250;50.756;6.172;2024-03-23T04:20:50;10.83;;;2.13;;
20181;SDS011;10250;50.756;6.172;2024-03-23T04:22:51;9.30;;;1.90;;
20181;SDS011;10250;50.756;6.172;2024-03-23T04:24:54;9.27;;;1.70;;
20181;SDS011;10250;50.756;6.172;2024-03-23T04:26:55;11.97;;;2.40;;
20181;SDS011;10250;50.756;6.172;2024-03-23T04:28:56;13.30;;;1.80;;
20181;SDS011;10250;50.756;6.172;2024-03-23T04:30:57;18.20;;;2.33;;
20181;SDS011;10250;50.756;6.172;2024-03-23T04:32:58;11.50;;;2.07;;
20181;SDS011;10250;50.756;6.172;2024-03-23T04:34:59;9.83;;;1.87;;
20181;SDS011;10250;50.756;6.172;2024-03-23T04:37:00;15.07;;;2.47;;
20181;SDS011;10250;50.756;6.172;2024-03-23T04:39:01;8.93;;;2.17;;
20181;SDS011;10250;50.756;6.172;2024-03-23T04:41:02;10.43;;;1.87;;
20181;SDS011;10250;50.756;6.172;2024-03-23T04:43:03;6.93;;;1.70;;
20181;SDS011;10250;50.756;6.172;2024-03-23T04:45:05;15.53;;;2.20;;
20181;SDS011;10250;50.756;6.172;2024-03-23T04:47:07;10.50;;;1.93;;
20181;SDS011;10250;50.756;6.172;2024-03-23T04:49:08;11.00;;;2.00;;
20181;SDS011;10250;50.756;6.172;2024-03-23T04:51:10;10.37;;;2.23;;
20181;SDS011;10250;50.756;6.172;2024-03-23T04:53:14;12.90;;;2.53;;
20181;SDS011;10250;50.756;6.172;2024-03-23T04:55:16;7.07;;;1.77;;
20181;SDS011;10250;50.756;6.172;2024-03-23T04:57:17;10.60;;;2.07;;
20181;SDS011;10250;50.756;6.172;2024-03-23T04:59:18;15.87;;;2.60;;
20181;SDS011;10250;50.756;6.172;2024-03-23T05:01:19;12.23;;;2.40;;
20181;SDS011;10250;50.756;6.172;2024-03-23T05:03:20;14.83;;;2.30;;
20181;SDS011;10250;50.756;6.172;2024-03-23T05:05:21;13.07;;;1.80;;
20181;SDS011;10250;50.756;6.172;2024-03-23T05:07:22;9.00;;;1.73;;
20181;SDS011;10250;50.756;6.172;2024-03-23T05:09:23;13.63;;;2.00;;
20181;SDS011;10250;50.756;6.172;2024-03-23T05:11:24;11.00;;;2.10;;
20181;SDS011;10250;50.756;6.172;2024-03-23T05:13:25;16.17;;;2.70;;
20181;SDS011;10250;50.756;6.172;2024-03-23T05:15:26;14.70;;;2.50;;
20181;SDS011;10250;50.756;6.172;2024-03-23T05:17:27;13.50;;;2.20;;
20181;SDS011;10250;50.756;6.172;2024-03-23T05:19:28;14.60;;;2.60;;
20181;SDS011;10250;50.756;6.172;2024-03-23T05:21:29;13.53;;;2.83;;
20181;SDS011;10250;50.756;6.172;2024-03-23T05:23:30;14.43;;;3.07;;
20181;SDS011;10250;50.756;6.172;2024-03-23T05:25:31;13.13;;;2.40;;
20181;SDS011;10250;50.756;6.172;2024-03-23T05:27:33;14.73;;;2.97;;
20181;SDS011;10250;50.756;6.172;2024-03-23T05:29:34;14.37;;;2.97;;
20181;SDS011;10250;50.756;6.172;2024-03-23T05:31:35;21.07;;;3.33;;
20181;SDS011;10250;50.756;6.172;2024-03-23T05:33:36;13.20;;;3.00;;
20181;SDS011;10250;50.756;6.172;2024-03-23T05:35:38;14.50;;;2.87;;
20181;SDS011;10250;50.756;6.172;2024-03-23T05:37:39;12.17;;;2.93;;
20181;SDS011;10250;50.756;6.172;2024-03-23T05:39:40;19.27;;;3.07;;
20181;SDS011;10250;50.756;6.172;2024-03-23T05:41:41;14.03;;;3.13;;
20181;SDS011;10250;50.756;6.172;2024-03-23T05:43:42;16.37;;;3.17;;
20181;SDS011;10250;50.756;6.172;2024-03-23T05:45:42;15.33;;;3.37;;
20181;SDS011;10250;50.756;6.172;2024-03-23T05:47:44;15.93;;;3.30;;
20181;SDS011;10250;50.756;6.172;2024-03-23T05:49:45;15.87;;;3.00;;
20181;SDS011;10250;50.756;6.172;2024-03-23T05:51:46;13.43;;;2.83;;
20181;SDS011;10250;50.756;6.172;2024-03-23T05:53:47;13.20;;;2.93;;
20181;SDS011;10250;50.756;6.172;2024-03-23T05:55:49;12.67;;;3.43;;
20181;SDS011;10250;50.756;6.172;2024-03-23T05:57:50;16.80;;;3.50;;
20181;SDS011;10250;50.756;6.172;2024-03-23T05:59:51;12.63;;;2.80;;
20181;SDS011;10250;50.756;6.172;2024-03-23T06:01:52;13.00;;;3.10;;
20181;SDS011;10250;50.756;6.172;2024-03-23T06:03:53;16.63;;;3.27;;
20181;SDS011;10250;50.756;6.172;2024-03-23T06:05:54;14.23;;;3.07;;
20181;SDS011;10250;50.756;6.172;2024-03-23T06:07:55;13.03;;;3.17;;
20181;SDS011;10250;50.756;6.172;2024-03-23T06:09:57;14.47;;;3.67;;
20181;SDS011;10250;50.756;6.172;2024-03-23T06:11:58;19.60;;;3.93;;
20181;SDS011;10250;50.756;6.172;2024-03-23T06:13:59;15.37;;;3.90;;
20181;SDS011;10250;50.756;6.172;2024-03-23T06:16:00;17.40;;;4.20;;
20181;SDS011;10250;50.756;6.172;2024-03-23T06:18:01;20.43;;;4.07;;
20181;SDS011;10250;50.756;6.172;2024-03-23T06:20:03;17.17;;;4.47;;
20181;SDS011;10250;50.756;6.172;2024-03-23T06:22:06;16.93;;;4.37;;
20181;SDS011;10250;50.756;6.172;2024-03-23T06:24:07;17.80;;;4.33;;
20181;SDS011;10250;50.756;6.172;2024-03-23T06:26:08;17.67;;;4.80;;
20181;SDS011;10250;50.756;6.172;2024-03-23T06:28:10;19.27;;;5.03;;
20181;SDS011;10250;50.756;6.172;2024-03-23T06:30:11;18.23;;;5.47;;
20181;SDS011;10250;50.756;6.172;2024-03-23T06:32:12;21.27;;;5.90;;
20181;SDS011;10250;50.756;6.172;2024-03-23T06:34:13;20.93;;;6.23;;
20181;SDS011;10250;50.756;6.172;2024-03-23T06:36:15;24.20;;;7.10;;
20181;SDS011;10250;50.756;6.172;2024-03-23T06:38:16;22.13;;;6.93;;
20181;SDS011;10250;50.756;6.172;2024-03-23T06:40:17;23.37;;;7.20;;
20181;SDS011;10250;50.756;6.172;2024-03-23T06:42:18;20.50;;;7.10;;
20181;SDS011;10250;50.756;6.172;2024-03-23T06:44:19;23.57;;;7.50;;
20181;SDS011;10250;50.756;6.172;2024-03-23T06:46:20;22.10;;;6.90;;
20181;SDS011;10250;50.756;6.172;2024-03-23T06:48:21;24.37;;;7.37;;
20181;SDS011;10250;50.756;6.172;2024-03-23T06:50:22;18.93;;;6.60;;
20181;SDS011;10250;50.756;6.172;2024-03-23T06:52:23;17.77;;;6.50;;
20181;SDS011;10250;50.756;6.172;2024-03-23T06:54:24;20.33;;;6.90;;
20181;SDS011;10250;50.756;6.172;2024-03-23T06:56:25;22.13;;;7.93;;
20181;SDS011;10250;50.756;6.172;2024-03-23T06:58:26;26.63;;;7.47;;
20181;SDS011;10250;50.756;6.172;2024-03-23T07:00:27;20.90;;;7.13;;
20181;SDS011;10250;50.756;6.172;2024-03-23T07:02:28;25.33;;;6.87;;
20181;SDS011;10250;50.756;6.172;2024-03-23T07:04:29;24.77;;;7.17;;
20181;SDS011;10250;50.756;6.172;2024-03-23T07:06:30;26.87;;;6.50;;
20181;SDS011;10250;50.756;6.172;2024-03-23T07:08:32;24.07;;;6.23;;
20181;SDS011;10250;50.756;6.172;2024-03-23T07:10:32;21.30;;;6.43;;
20181;SDS011;10250;50.756;6.172;2024-03-23T07:12:33;19.63;;;5.60;;
20181;SDS011;10250;50.756;6.172;2024-03-23T07:14:34;20.00;;;6.13;;
20181;SDS011;10250;50.756;6.172;2024-03-23T07:16:35;20.77;;;5.87;;
20181;SDS011;10250;50.756;6.172;2024-03-23T07:18:36;21.20;;;6.13;;
20181;SDS011;10250;50.756;6.172;2024-03-23T07:20:37;19.70;;;6.00;;
20181;SDS011;10250;50.756;6.172;2024-03-23T07:22:38;16.93;;;5.53;;
20181;SDS011;10250;50.756;6.172;2024-03-23T07:24:39;21.77;;;5.43;;
20181;SDS011;10250;50.756;6.172;2024-03-23T07:26:41;19.77;;;5.37;;
20181;SDS011;10250;50.756;6.172;2024-03-23T07:28:43;21.20;;;6.13;;
20181;SDS011;10250;50.756;6.172;2024-03-23T07:30:46;20.77;;;5.93;;
20181;SDS011;10250;50.756;6.172;2024-03-23T07:32:47;21.93;;;5.97;;
20181;SDS011;10250;50.756;6.172;2024-03-23T07:34:48;19.47;;;6.50;;
20181;SDS011;10250;50.756;6.172;2024-03-23T07:36:49;21.93;;;6.67;;
20181;SDS011;10250;50.756;6.172;2024-03-23T07:38:50;20.70;;;6.17;;
20181;SDS011;10250;50.756;6.172;2024-03-23T07:40:51;20.80;;;6.83;;
20181;SDS011;10250;50.756;6.172;2024-03-23T07:42:56;25.70;;;5.93;;
20181;SDS011;10250;50.756;6.172;2024-03-23T07:44:57;27.83;;;6.33;;
20181;SDS011;10250;50.756;6.172;2024-03-23T07:47:01;20.70;;;5.63;;
20181;SDS011;10250;50.756;6.172;2024-03-23T07:49:04;20.63;;;5.77;;
20181;SDS011;10250;50.756;6.172;2024-03-23T07:51:06;20.53;;;5.30;;
20181;SDS011;10250;50.756;6.172;2024-03-23T07:53:07;15.77;;;5.03;;
20181;SDS011;10250;50.756;6.172;2024-03-23T07:55:08;19.40;;;4.50;;
20181;SDS011;10250;50.756;6.172;2024-03-23T07:57:09;18.50;;;4.87;;
20181;SDS011;10250;50.756;6.172;2024-03-23T07:59:10;19.30;;;4.63;;
20181;SDS011;10250;50.756;6.172;2024-03-23T08:01:11;18.50;;;4.33;;
20181;SDS011;10250;50.756;6.172;2024-03-23T08:03:14;19.60;;;4.47;;
20181;SDS011;10250;50.756;6.172;2024-03-23T08:05:15;23.50;;;4.20;;
20181;SDS011;10250;50.756;6.172;2024-03-23T08:07:16;17.20;;;3.90;;
20181;SDS011;10250;50.756;6.172;2024-03-23T08:09:17;15.93;;;3.33;;
20181;SDS011;10250;50.756;6.172;2024-03-23T08:11:18;15.87;;;3.60;;
20181;SDS011;10250;50.756;6.172;2024-03-23T08:13:19;20.30;;;3.47;;
20181;SDS011;10250;50.756;6.172;2024-03-23T08:15:20;14.73;;;3.27;;
20181;SDS011;10250;50.756;6.172;2024-03-23T08:17:21;16.00;;;3.10;;
20181;SDS011;10250;50.756;6.172;2024-03-23T08:19:22;14.97;;;2.90;;
20181;SDS011;10250;50.756;6.172;2024-03-23T08:21:23;16.30;;;3.50;;
20181;SDS011;10250;50.756;6.172;2024-03-23T08:23:30;15.93;;;3.03;;
20181;SDS011;10250;50.756;6.172;2024-03-23T08:25:32;16.03;;;3.17;;
20181;SDS011;10250;50.756;6.172;2024-03-23T08:27:33;18.40;;;3.37;;
20181;SDS011;10250;50.756;6.172;2024-03-23T08:29:34;18.23;;;2.80;;
20181;SDS011;10250;50.756;6.172;2024-03-23T08:31:35;15.43;;;3.00;;
20181;SDS011;10250;50.756;6.172;2024-03-23T08:33:36;16.30;;;3.27;;
20181;SDS011;10250;50.756;6.172;2024-03-23T08:35:38;12.27;;;3.10;;
20181;SDS011;10250;50.756;6.172;2024-03-23T08:37:39;15.90;;;3.00;;
20181;SDS011;10250;50.756;6.172;2024-03-23T08:39:40;13.10;;;3.27;;
20181;SDS011;10250;50.756;6.172;2024-03-23T08:41:42;14.57;;;2.70;;
20181;SDS011;10250;50.756;6.172;2024-03-23T08:43:46;12.47;;;3.07;;
20181;SDS011;10250;50.756;6.172;2024-03-23T08:45:47;15.17;;;3.20;;
20181;SDS011;10250;50.756;6.172;2024-03-23T08:47:48;14.53;;;3.10;;
20181;SDS011;10250;50.756;6.172;2024-03-23T08:49:49;15.40;;;3.33;;
20181;SDS011;10250;50.756;6.172;2024-03-23T08:51:50;10.97;;;2.70;;
20181;SDS011;10250;50.756;6.172;2024-03-23T08:53:52;17.10;;;3.53;;
20181;SDS011;10250;50.756;6.172;2024-03-23T08:55:53;18.70;;;3.13;;
20181;SDS011;10250;50.756;6.172;2024-03-23T08:57:54;18.23;;;2.90;;
20181;SDS011;10250;50.756;6.172;2024-03-23T08:59:56;14.93;;;3.30;;
20181;SDS011;10250;50.756;6.172;2024-03-23T09:01:56;16.77;;;3.20;;
20181;SDS011;10250;50.756;6.172;2024-03-23T09:03:57;14.37;;;3.07;;
20181;SDS011;10250;50.756;6.172;2024-03-23T09:05:58;19.13;;;2.93;;
20181;SDS011;10250;50.756;6.172;2024-03-23T09:07:59;12.70;;;3.17;;
20181;SDS011;10250;50.756;6.172;2024-03-23T09:10:00;18.23;;;2.83;;
20181;SDS011;10250;50.756;6.172;2024-03-23T09:12:01;15.63;;;3.00;;
20181;SDS011;10250;50.756;6.172;2024-03-23T09:14:02;12.27;;;2.77;;
20181;SDS011;10250;50.756;6.172;2024-03-23T09:16:04;17.73;;;3.50;;
20181;SDS011;10250;50.756;6.172;2024-03-23T09:18:05;15.97;;;3.37;;
20181;SDS011;10250;50.756;6.172;2024-03-23T09:20:06;15.10;;;3.00;;
20181;SDS011;10250;50.756;6.172;2024-03-23T09:22:07;15.47;;;2.90;;
20181;SDS011;10250;50.756;6.172;2024-03-23T09:24:08;16.93;;;3.30;;
20181;SDS011;10250;50.756;6.172;2024-03-23T09:26:09;15.03;;;2.87;;
20181;SDS011;10250;50.756;6.172;2024-03-23T09:28:10;13.30;;;2.50;;
20181;SDS011;10250;50.756;6.172;2024-03-23T09:30:11;11.13;;;2.40;;
20181;SDS011;10250;50.756;6.172;2024-03-23T09:32:12;9.70;;;1.90;;
20181;SDS011;10250;50.756;6.172;2024-03-23T09:34:13;10.43;;;1.80;;
20181;SDS011;10250;50.756;6.172;2024-03-23T09:36:15;11.53;;;1.77;;
20181;SDS011;10250;50.756;6.172;2024-03-23T09:38:16;6.77;;;1.67;;
20181;SDS011;10250;50.756;6.172;2024-03-23T09:40:17;9.93;;;1.40;;
20181;SDS011;10250;50.756;6.172;2024-03-23T09:42:18;9.03;;;1.20;;
20181;SDS011;10250;50.756;6.172;2024-03-23T09:44:19;14.13;;;2.47;;
20181;SDS011;10250;50.756;6.172;2024-03-23T09:46:20;6.70;;;1.10;;
20181;SDS011;10250;50.756;6.172;2024-03-23T09:48:21;8.37;;;1.83;;
20181;SDS011;10250;50.756;6.172;2024-03-23T09:50:22;7.20;;;1.10;;
20181;SDS011;10250;50.756;6.172;2024-03-23T09:52:23;7.53;;;1.20;;
20181;SDS011;10250;50.756;6.172;2024-03-23T09:54:24;7.10;;;1.10;;
20181;SDS011;10250;50.756;6.172;2024-03-23T09:56:25;6.37;;;1.33;;
20181;SDS011;10250;50.756;6.172;2024-03-23T09:58:26;5.37;;;1.30;;
20181;SDS011;10250;50.756;6.172;2024-03-23T10:00:27;6.30;;;1.50;;
20181;SDS011;10250;50.756;6.172;2024-03-23T10:02:28;6.33;;;1.50;;
20181;SDS011;10250;50.756;6.172;2024-03-23T10:04:36;8.97;;;1.70;;
20181;SDS011;10250;50.756;6.172;2024-03-23T10:06:37;5.47;;;1.57;;
20181;SDS011;10250;50.756;6.172;2024-03-23T10:08:38;12.07;;;1.77;;
20181;SDS011;10250;50.756;6.172;2024-03-23T10:10:39;10.33;;;2.00;;
20181;SDS011;10250;50.756;6.172;2024-03-23T10:12:43;11.47;;;2.30;;
20181;SDS011;10250;50.756;6.172;2024-03-23T10:14:47;13.70;;;2.37;;
20181;SDS011;10250;50.756;6.172;2024-03-23T10:16:48;13.83;;;2.10;;
20181;SDS011;10250;50.756;6.172;2024-03-23T10:18:49;12.50;;;2.73;;
20181;SDS011;10250;50.756;6.172;2024-03-23T10:23:06;12.40;;;2.80;;
20181;SDS011;10250;50.756;6.172;2024-03-23T10:25:16;11.70;;;3.13;;
20181;SDS011;10250;50.756;6.172;2024-03-23T10:27:17;15.30;;;4.10;;
20181;SDS011;10250;50.756;6.172;2024-03-23T10:29:19;14.00;;;3.63;;
20181;SDS011;10250;50.756;6.172;2024-03-23T10:31:20;19.40;;;4.23;;
20181;SDS011;10250;50.756;6.172;2024-03-23T10:33:21;11.87;;;3.30;;
20181;SDS011;10250;50.756;6.172;2024-03-23T10:35:22;13.33;;;3.80;;
20181;SDS011;10250;50.756;6.172;2024-03-23T10:37:23;13.20;;;3.47;;
20181;SDS011;10250;50.756;6.172;2024-03-23T10:45:56;14.30;;;3.83;;
20181;SDS011;10250;50.756;6.172;2024-03-23T10:47:58;21.07;;;3.87;;
20181;SDS011;10250;50.756;6.172;2024-03-23T10:49:59;17.53;;;4.00;;
20181;SDS011;10250;50.756;6.172;2024-03-23T10:52:00;16.33;;;4.00;;
20181;SDS011;10250;50.756;6.172;2024-03-23T10:54:03;14.63;;;3.30;;
20181;SDS011;10250;50.756;6.172;2024-03-23T10:56:06;16.13;;;3.23;;
20181;SDS011;10250;50.756;6.172;2024-03-23T10:58:08;15.63;;;3.63;;
20181;SDS011;10250;50.756;6.172;2024-03-23T11:00:09;17.83;;;3.83;;
20181;SDS011;10250;50.756;6.172;2024-03-23T11:02:18;15.20;;;3.10;;
20181;SDS011;10250;50.756;6.172;2024-03-23T11:04:40;12.50;;;2.90;;
20181;SDS011;10250;50.756;6.172;2024-03-23T11:06:42;16.50;;;3.10;;
20181;SDS011;10250;50.756;6.172;2024-03-23T11:08:43;13.37;;;3.47;;
20181;SDS011;10250;50.756;6.172;2024-03-23T11:10:47;10.47;;;2.73;;
20181;SDS011;10250;50.756;6.172;2024-03-23T11:12:48;13.27;;;3.00;;
20181;SDS011;10250;50.756;6.172;2024-03-23T11:17:09;14.10;;;2.83;;
20181;SDS011;10250;50.756;6.172;2024-03-23T11:21:53;14.93;;;2.60;;
20181;SDS011;10250;50.756;6.172;2024-03-23T11:23:54;12.77;;;2.70;;
20181;SDS011;10250;50.756;6.172;2024-03-23T11:25:55;13.43;;;3.30;;
20181;SDS011;10250;50.756;6.172;2024-03-23T11:27:56;10.37;;;2.47;;
20181;SDS011;10250;50.756;6.172;2024-03-23T11:30:09;14.83;;;2.90;;
20181;SDS011;10250;50.756;6.172;2024-03-23T11:32:10;10.97;;;2.73;;
20181;SDS011;10250;50.756;6.172;2024-03-23T11:34:14;11.17;;;2.50;;
20181;SDS011;10250;50.756;6.172;2024-03-23T11:36:19;9.87;;;2.40;;
20181;SDS011;10250;50.756;6.172;2024-03-23T11:38:20;13.37;;;2.80;;
20181;SDS011;10250;50.756;6.172;2024-03-23T11:40:21;14.07;;;2.70;;
20181;SDS011;10250;50.756;6.172;2024-03-23T11:42:22;12.17;;;2.73;;
20181;SDS011;10250;50.756;6.172;2024-03-23T11:44:25;11.13;;;2.70;;
20181;SDS011;10250;50.756;6.172;2024-03-23T11:46:26;8.50;;;2.23;;
20181;SDS011;10250;50.756;6.172;2024-03-23T11:48:27;10.40;;;2.53;;
20181;SDS011;10250;50.756;6.172;2024-03-23T11:50:28;11.43;;;2.50;;
20181;SDS011;10250;50.756;6.172;2024-03-23T11:52:29;12.20;;;2.63;;
20181;SDS011;10250;50.756;6.172;2024-03-23T11:54:30;12.33;;;2.67;;
20181;SDS011;10250;50.756;6.172;2024-03-23T11:56:31;10.37;;;2.53;;
20181;SDS011;10250;50.756;6.172;2024-03-23T11:58:32;10.70;;;2.30;;
20181;SDS011;10250;50.756;6.172;2024-03-23T12:00:35;12.70;;;2.50;;
20181;SDS011;10250;50.756;6.172;2024-03-23T12:02:36;12.53;;;2.57;;
20181;SDS011;10250;50.756;6.172;2024-03-23T12:04:38;10.53;;;2.40;;
20181;SDS011;10250;50.756;6.172;2024-03-23T12:06:39;8.87;;;2.33;;
20181;SDS011;10250;50.756;6.172;2024-03-23T12:08:40;14.60;;;2.40;;
20181;SDS011;10250;50.756;6.172;2024-03-23T12:10:43;13.60;;;2.70;;
20181;SDS011;10250;50.756;6.172;2024-03-23T12:12:45;10.97;;;2.37;;
20181;SDS011;10250;50.756;6.172;2024-03-23T12:15:00;14.07;;;2.20;;
20181;SDS011;10250;50.756;6.172;2024-03-23T12:17:11;7.20;;;1.67;;
20181;SDS011;10250;50.756;6.172;2024-03-23T12:23:34;11.07;;;2.20;;
20181;SDS011;10250;50.756;6.172;2024-03-23T12:25:35;12.03;;;2.20;;
20181;SDS011;10250;50.756;6.172;2024-03-23T12:27:36;5.83;;;1.50;;
20181;SDS011;10250;50.756;6.172;2024-03-23T12:29:37;12.03;;;1.60;;
20181;SDS011;10250;50.756;6.172;2024-03-23T12:31:39;12.13;;;1.53;;
20181;SDS011;10250;50.756;6.172;2024-03-23T12:33:40;7.63;;;1.50;;
20181;SDS011;10250;50.756;6.172;2024-03-23T12:37:44;8.03;;;1.43;;
20181;SDS011;10250;50.756;6.172;2024-03-23T12:39:45;6.70;;;1.40;;
20181;SDS011;10250;50.756;6.172;2024-03-23T12:41:47;6.93;;;1.33;;
20181;SDS011;10250;50.756;6.172;2024-03-23T12:43:48;9.07;;;1.60;;
20181;SDS011;10250;50.756;6.172;2024-03-23T12:45:49;9.93;;;1.83;;
20181;SDS011;10250;50.756;6.172;2024-03-23T12:47:50;5.93;;;1.37;;
20181;SDS011;10250;50.756;6.172;2024-03-23T12:49:54;9.90;;;1.77;;
20181;SDS011;10250;50.756;6.172;2024-03-23T12:51:55;13.07;;;1.80;;
20181;SDS011;10250;50.756;6.172;2024-03-23T12:53:57;8.63;;;1.47;;
20181;SDS011;10250;50.756;6.172;2024-03-23T12:55:58;5.60;;;1.33;;
20181;SDS011;10250;50.756;6.172;2024-03-23T12:57:59;7.77;;;1.50;;
20181;SDS011;10250;50.756;6.172;2024-03-23T13:00:00;11.60;;;1.80;;
20181;SDS011;10250;50.756;6.172;2024-03-23T13:02:01;8.77;;;1.50;;
20181;SDS011;10250;50.756;6.172;2024-03-23T13:04:02;9.40;;;1.60;;
20181;SDS011;10250;50.756;6.172;2024-03-23T13:06:03;8.67;;;1.40;;
20181;SDS011;10250;50.756;6.172;2024-03-23T13:08:07;10.13;;;1.40;;
20181;SDS011;10250;50.756;6.172;2024-03-23T13:10:08;9.07;;;1.53;;
20181;SDS011;10250;50.756;6.172;2024-03-23T13:12:10;8.07;;;1.40;;
20181;SDS011;10250;50.756;6.172;2024-03-23T13:14:14;8.60;;;1.67;;
20181;SDS011;10250;50.756;6.172;2024-03-23T13:16:16;8.87;;;1.30;;